Terminal Aerodrome Forecast
Issued by NWS

Home | Current Version | Previous Version | Text Only | Print | Product List | Glossary On
Versions: 1 2 3 4 5 6 7 8 9 10 11 12 13 14 15 16 17 18 19 20 21 22 23 24 25 26 27 28
000
FTUS42 KMFL 280857 AAA
TAFOPF
TAF AMD
KOPF 280857Z 2809/0106 11008KT P6SM FEW025 SCT040
     FM281500 12015KT P6SM SCT050
     FM010000 10009KT P6SM SCT050=

USA.gov is the U.S. government's official web portal to all federal, state and local government web resources and services.